createdAt,value
2023-04-05T00:01:07.689Z,6.47
2023-04-05T00:03:37.438Z,6.28
2023-04-05T00:06:06.108Z,6.10
2023-04-05T00:08:34.161Z,6.35
2023-04-05T00:11:02.159Z,6.10
2023-04-05T00:13:30.491Z,6.20
2023-04-05T00:16:01.346Z,6.38
2023-04-05T00:18:34.393Z,5.72
2023-04-05T00:21:06.404Z,6.20
2023-04-05T00:23:38.543Z,6.18
2023-04-05T00:26:06.769Z,5.28
2023-04-05T00:28:36.103Z,5.80
2023-04-05T00:31:04.583Z,5.68
2023-04-05T00:33:32.533Z,5.63
2023-04-05T00:36:11.813Z,5.40
2023-04-05T00:38:40.026Z,5.47
2023-04-05T00:41:08.095Z,6.30
2023-04-05T00:43:37.080Z,6.32
2023-04-05T00:46:05.790Z,5.90
2023-04-05T00:48:34.604Z,6.40
2023-04-05T00:51:02.865Z,6.35
2023-04-05T00:53:32.895Z,6.35
2023-04-05T00:56:01.511Z,6.20
2023-04-05T00:58:29.558Z,6.40
2023-04-05T01:01:02.710Z,5.88
2023-04-05T01:03:31.274Z,6.82
2023-04-05T01:06:07.472Z,7.07
2023-04-05T01:08:44.186Z,5.97
2023-04-05T01:11:13.424Z,6.75
2023-04-05T01:13:41.841Z,6.18
2023-04-05T01:16:09.741Z,6.30
2023-04-05T01:18:38.066Z,6.78
2023-04-05T01:21:18.757Z,5.53
2023-04-05T01:23:54.711Z,5.65
2023-04-05T01:26:39.777Z,5.72
2023-04-05T01:29:38.677Z,5.35
2023-04-05T01:32:11.775Z,6.03
2023-04-05T01:34:47.311Z,6.63
2023-04-05T01:37:17.752Z,6.50
2023-04-05T01:39:47.449Z,6.15
2023-04-05T01:42:15.573Z,6.18
2023-04-05T01:44:45.012Z,5.93
2023-04-05T01:47:12.899Z,6.10
2023-04-05T01:49:40.705Z,6.28
2023-04-05T01:52:08.779Z,6.25
2023-04-05T01:54:36.590Z,6.43
2023-04-05T01:57:05.089Z,6.22
2023-04-05T01:59:33.439Z,6.22
2023-04-05T02:02:02.685Z,6.32
2023-04-05T02:04:30.821Z,6.60
2023-04-05T02:06:58.764Z,6.22
2023-04-05T02:09:26.839Z,6.22
2023-04-05T02:11:54.704Z,6.60
2023-04-05T02:14:22.746Z,6.53
2023-04-05T02:16:51.159Z,6.70
2023-04-05T02:19:23.868Z,6.45
2023-04-05T02:21:53.776Z,7.28
2023-04-05T02:24:21.990Z,6.78
2023-04-05T02:26:50.047Z,6.22
2023-04-05T02:29:18.310Z,6.93
2023-04-05T02:31:46.518Z,5.95
2023-04-05T02:34:14.925Z,6.82
2023-04-05T02:36:44.215Z,6.20
2023-04-05T02:39:13.442Z,5.90
2023-04-05T02:41:41.484Z,5.90
2023-04-05T02:44:11.450Z,6.70
2023-04-05T02:46:39.499Z,5.80
2023-04-05T02:49:07.587Z,6.45
2023-04-05T02:51:37.081Z,6.20
2023-04-05T02:54:10.125Z,5.88
2023-04-05T02:56:38.229Z,6.40
2023-04-05T02:59:13.772Z,6.88
2023-04-05T03:01:44.585Z,6.00
2023-04-05T03:04:20.667Z,6.65
2023-04-05T03:06:52.234Z,6.75
2023-04-05T03:09:23.064Z,6.43
2023-04-05T03:11:56.019Z,6.10
2023-04-05T03:14:24.280Z,6.30
2023-04-05T03:16:53.353Z,6.05
2023-04-05T03:19:29.932Z,6.38
2023-04-05T03:22:09.071Z,5.85
2023-04-05T03:24:42.633Z,7.13
2023-04-05T03:27:14.910Z,6.93
2023-04-05T03:30:03.372Z,6.25
2023-04-05T03:32:33.723Z,6.65
2023-04-05T03:35:13.371Z,5.82
2023-04-05T03:37:45.748Z,6.38
2023-04-05T03:40:15.630Z,6.50
2023-04-05T03:42:44.424Z,6.50
2023-04-05T03:45:12.697Z,6.90
2023-04-05T03:47:40.653Z,6.85
2023-04-05T03:50:09.915Z,6.50
2023-04-05T03:52:37.961Z,6.28
2023-04-05T03:55:08.178Z,6.60
2023-04-05T03:57:38.756Z,6.55
2023-04-05T04:00:20.193Z,6.65
2023-04-05T04:03:04.296Z,6.65
2023-04-05T04:05:33.111Z,6.85
2023-04-05T04:08:00.982Z,6.88
2023-04-05T04:10:29.328Z,7.63
2023-04-05T04:13:00.882Z,7.20
2023-04-05T04:15:33.040Z,6.85
2023-04-05T04:18:30.128Z,7.22
2023-04-05T04:21:28.085Z,6.35
2023-04-05T04:24:04.671Z,6.78
2023-04-05T04:26:54.839Z,6.60
2023-04-05T04:29:33.618Z,6.65
2023-04-05T04:32:26.940Z,6.60
2023-04-05T04:35:18.258Z,7.10
2023-04-05T04:38:05.804Z,7.10
2023-04-05T04:40:51.045Z,7.15
2023-04-05T04:43:27.627Z,6.65
2023-04-05T04:46:27.280Z,6.50
2023-04-05T04:49:06.152Z,6.60
2023-04-05T04:51:34.377Z,6.80
2023-04-05T04:54:02.237Z,6.50
2023-04-05T04:56:30.143Z,6.70
2023-04-05T04:58:59.967Z,6.32
2023-04-05T05:01:29.250Z,6.72
2023-04-05T05:03:57.915Z,6.75
2023-04-05T05:06:32.644Z,7.22
2023-04-05T05:09:01.318Z,7.07
2023-04-05T05:11:30.625Z,6.68
2023-04-05T05:13:59.289Z,6.65
2023-04-05T05:16:30.701Z,7.07
2023-04-05T05:18:58.696Z,6.60
2023-04-05T05:21:31.614Z,7.00
2023-04-05T05:24:02.410Z,7.05
2023-04-05T05:26:30.248Z,6.60
2023-04-05T05:29:01.879Z,7.18
2023-04-05T05:31:33.839Z,7.22
2023-04-05T05:34:01.851Z,7.57
2023-04-05T05:36:31.052Z,6.35
2023-04-05T05:38:59.360Z,7.57
2023-04-05T05:41:27.099Z,7.10
2023-04-05T05:43:55.024Z,6.50
2023-04-05T05:46:23.150Z,7.63
2023-04-05T05:48:52.308Z,7.97
2023-04-05T05:51:20.233Z,7.75
2023-04-05T05:53:48.556Z,8.18
2023-04-05T05:56:16.373Z,7.18
2023-04-05T05:58:44.130Z,7.60
2023-04-05T06:01:12.803Z,8.35
2023-04-05T06:03:40.902Z,7.50
2023-04-05T06:06:11.344Z,7.78
2023-04-05T06:08:39.190Z,8.65
2023-04-05T06:11:07.237Z,7.93
2023-04-05T06:13:35.065Z,8.20
2023-04-05T06:16:03.039Z,8.65
2023-04-05T06:18:31.204Z,8.13
2023-04-05T06:20:59.129Z,8.57
2023-04-05T06:23:28.320Z,8.30
2023-04-05T06:25:57.162Z,8.50
2023-04-05T06:28:24.932Z,7.88
2023-04-05T06:30:53.002Z,8.32
2023-04-05T06:33:21.091Z,7.18
2023-04-05T06:35:49.075Z,8.27
2023-04-05T06:38:16.890Z,8.80
2023-04-05T06:40:46.188Z,7.60
2023-04-05T06:43:13.969Z,7.90
2023-04-05T06:45:41.956Z,7.25
2023-04-05T06:48:09.872Z,7.45
2023-04-05T06:50:37.819Z,6.68
2023-04-05T06:53:06.116Z,7.10
2023-04-05T06:55:34.090Z,6.60
2023-04-05T06:58:03.159Z,6.65
2023-04-05T07:00:31.021Z,7.57
2023-04-05T07:02:58.953Z,7.72
2023-04-05T07:05:27.099Z,6.97
2023-04-05T07:07:55.013Z,7.40
2023-04-05T07:10:23.045Z,7.47
2023-04-05T07:12:52.244Z,7.50
2023-04-05T07:15:21.742Z,8.07
2023-04-05T07:17:50.281Z,7.68
2023-04-05T07:20:18.836Z,7.30
2023-04-05T07:22:46.759Z,7.60
2023-04-05T07:25:14.624Z,7.43
2023-04-05T07:27:43.033Z,6.82
2023-04-05T07:30:11.546Z,7.45
2023-04-05T07:32:41.030Z,6.57
2023-04-05T07:35:09.422Z,6.75
2023-04-05T07:37:37.247Z,7.13
2023-04-05T07:40:06.492Z,6.95
2023-04-05T07:42:34.608Z,6.53
2023-04-05T07:45:02.581Z,5.93
2023-04-05T07:47:30.704Z,6.03
2023-04-05T07:49:59.975Z,7.00
2023-04-05T07:52:27.934Z,5.68
2023-04-05T07:54:56.388Z,6.65
2023-04-05T07:57:24.266Z,5.82
2023-04-05T07:59:52.852Z,5.82
2023-04-05T08:02:20.950Z,6.32
2023-04-05T08:04:49.044Z,6.05
2023-04-05T08:07:18.433Z,5.40
2023-04-05T08:09:46.733Z,6.13
2023-04-05T08:12:14.733Z,5.72
2023-04-05T08:14:42.703Z,5.47
2023-04-05T08:17:11.148Z,6.18
2023-04-05T08:19:39.148Z,6.50
2023-04-05T08:22:07.003Z,5.25
2023-04-05T08:24:39.221Z,6.30
2023-04-05T08:27:07.133Z,6.05
2023-04-05T08:29:35.288Z,5.93
2023-04-05T08:32:03.509Z,6.18
2023-04-05T08:34:31.520Z,6.70
2023-04-05T08:37:00.456Z,7.50
2023-04-05T08:39:28.765Z,6.45
2023-04-05T08:42:03.072Z,6.63
2023-04-05T08:44:32.186Z,5.68
2023-04-05T08:47:00.418Z,5.70
2023-04-05T08:49:29.093Z,5.43
2023-04-05T08:51:57.168Z,5.28
2023-04-05T08:54:24.960Z,5.07
2023-04-05T08:56:54.570Z,5.22
2023-04-05T08:59:24.750Z,5.53
2023-04-05T09:01:53.155Z,5.15
2023-04-05T09:04:23.473Z,5.55
2023-04-05T09:06:52.778Z,5.35
2023-04-05T09:09:22.492Z,5.13
2023-04-05T09:11:51.169Z,5.30
2023-04-05T09:14:19.062Z,5.75
2023-04-05T09:16:48.450Z,5.20
2023-04-05T09:19:16.507Z,5.60
2023-04-05T09:22:00.856Z,5.72
2023-04-05T09:24:36.980Z,5.43
2023-04-05T09:27:06.830Z,5.80
2023-04-05T09:29:34.910Z,5.90
2023-04-05T09:32:07.462Z,5.25
2023-04-05T09:34:36.951Z,6.13
2023-04-05T09:37:14.425Z,5.88
2023-04-05T09:39:43.016Z,6.07
2023-04-05T09:42:12.018Z,5.95
2023-04-05T09:44:56.522Z,5.45
2023-04-05T09:47:31.264Z,5.70
2023-04-05T09:50:06.239Z,5.78
2023-04-05T09:52:35.327Z,6.03
2023-04-05T09:55:06.885Z,6.32
2023-04-05T09:57:37.930Z,5.47
2023-04-05T10:00:10.122Z,5.97
2023-04-05T10:02:44.071Z,5.63
2023-04-05T10:05:14.052Z,5.93
2023-04-05T10:07:42.200Z,5.78
2023-04-05T10:10:12.543Z,6.38
2023-04-05T10:12:41.977Z,6.80
2023-04-05T10:15:11.085Z,5.78
2023-04-05T10:17:45.823Z,6.60
2023-04-05T10:20:16.115Z,5.97
2023-04-05T10:22:55.062Z,5.90
2023-04-05T10:25:27.430Z,6.05
2023-04-05T10:27:57.031Z,6.75
2023-04-05T10:30:26.070Z,5.68
2023-04-05T10:33:05.602Z,6.65
2023-04-05T10:35:36.952Z,6.20
2023-04-05T10:38:18.958Z,6.28
2023-04-05T10:40:49.286Z,6.45
2023-04-05T10:43:20.880Z,6.32
2023-04-05T10:45:50.687Z,6.55
2023-04-05T10:48:29.367Z,6.60
2023-04-05T10:50:58.038Z,5.88
2023-04-05T10:53:26.990Z,5.72
2023-04-05T10:55:57.101Z,5.85
2023-04-05T10:58:25.671Z,6.50
2023-04-05T11:00:54.133Z,6.10
2023-04-05T11:03:48.220Z,6.15
2023-04-05T11:06:20.944Z,7.28
2023-04-05T11:08:49.915Z,6.53
2023-04-05T11:11:19.212Z,6.18
2023-04-05T11:13:51.945Z,6.40
2023-04-05T11:16:20.074Z,6.15
2023-04-05T11:18:50.237Z,5.95
2023-04-05T11:21:23.908Z,6.70
2023-04-05T11:26:33.149Z,6.47
2023-04-05T11:29:00.975Z,7.10
2023-04-05T11:31:28.744Z,5.85
2023-04-05T11:34:10.251Z,5.50
2023-04-05T11:36:41.897Z,5.95
2023-04-05T11:39:29.284Z,5.85
2023-04-05T11:42:04.392Z,6.40
2023-04-05T11:44:42.048Z,6.47
2023-04-05T11:47:11.583Z,6.93
2023-04-05T11:49:42.604Z,6.22
2023-04-05T11:52:15.579Z,6.00
2023-04-05T11:54:47.096Z,6.18
2023-04-05T11:57:17.364Z,6.20
2023-04-05T11:59:45.663Z,5.93
2023-04-05T12:02:13.955Z,6.05
2023-04-05T12:04:43.331Z,6.65
2023-04-05T12:07:12.578Z,5.90
2023-04-05T12:10:07.691Z,5.95
2023-04-05T12:12:39.981Z,5.60
2023-04-05T12:15:10.916Z,5.70
2023-04-05T12:17:47.307Z,5.82
2023-04-05T12:20:19.534Z,6.30
2023-04-05T12:22:50.958Z,5.82
2023-04-05T12:25:19.871Z,6.15
2023-04-05T12:27:48.444Z,5.65
2023-04-05T12:30:18.022Z,6.35
2023-04-05T12:32:47.443Z,5.68
2023-04-05T12:35:19.830Z,5.90
2023-04-05T12:37:47.902Z,6.38
2023-04-05T12:40:22.015Z,5.05
2023-04-05T12:42:50.457Z,5.40
2023-04-05T12:45:18.800Z,5.90
2023-04-05T12:47:52.341Z,6.22
2023-04-05T12:50:28.025Z,6.47
2023-04-05T12:52:57.902Z,6.00
2023-04-05T12:55:28.189Z,5.63
2023-04-05T12:57:59.657Z,5.65
2023-04-05T13:00:28.837Z,5.65
2023-04-05T13:02:58.266Z,5.85
2023-04-05T13:05:29.163Z,5.78
2023-04-05T13:07:57.027Z,5.28
2023-04-05T13:10:26.512Z,6.05
2023-04-05T13:12:54.546Z,6.30
2023-04-05T13:15:22.384Z,5.40
2023-04-05T13:17:52.156Z,6.22
2023-04-05T13:20:20.484Z,5.80
2023-04-05T13:22:49.832Z,5.90
2023-04-05T13:25:17.893Z,5.80
2023-04-05T13:27:45.775Z,6.05
2023-04-05T13:30:14.268Z,6.00
2023-04-05T13:32:42.438Z,6.25
2023-04-05T13:35:11.327Z,6.13
2023-04-05T13:37:39.289Z,6.10
2023-04-05T13:40:09.919Z,5.68
2023-04-05T13:42:38.719Z,5.60
2023-04-05T13:45:07.759Z,5.88
2023-04-05T13:47:35.803Z,6.22
2023-04-05T13:50:04.097Z,6.70
2023-04-05T13:52:31.870Z,6.10
2023-04-05T13:55:02.112Z,5.85
2023-04-05T13:57:33.250Z,6.25
2023-04-05T14:00:01.160Z,6.25
2023-04-05T14:02:39.932Z,6.07
2023-04-05T14:05:08.846Z,6.13
2023-04-05T14:07:37.492Z,6.38
2023-04-05T14:10:07.327Z,6.68
2023-04-05T14:12:37.258Z,5.80
2023-04-05T14:15:06.241Z,6.00
2023-04-05T14:17:34.072Z,5.70
2023-04-05T14:20:01.984Z,6.25
2023-04-05T14:22:29.932Z,6.15
2023-04-05T14:24:58.008Z,6.15
2023-04-05T14:27:27.131Z,5.93
2023-04-05T14:29:57.444Z,6.30
2023-04-05T14:32:25.616Z,6.13
2023-04-05T14:34:54.090Z,6.47
2023-04-05T14:37:22.079Z,5.75
2023-04-05T14:39:50.144Z,6.95
2023-04-05T14:42:18.087Z,6.38
2023-04-05T14:44:46.228Z,6.05
2023-04-05T14:47:15.370Z,5.75
2023-04-05T14:49:43.364Z,6.32
2023-04-05T14:52:11.392Z,6.22
2023-04-05T14:54:39.346Z,6.30
2023-04-05T14:57:07.314Z,5.78
2023-04-05T14:59:35.401Z,6.07
2023-04-05T15:02:03.400Z,6.35
2023-04-05T15:04:32.670Z,6.10
2023-04-05T15:07:00.773Z,5.95
2023-04-05T15:09:28.906Z,6.50
2023-04-05T15:11:56.845Z,5.75
2023-04-05T15:14:31.695Z,6.82
2023-04-05T15:17:00.856Z,6.75
2023-04-05T15:19:30.685Z,6.50
2023-04-05T15:21:59.907Z,6.53
2023-04-05T15:24:27.924Z,6.70
2023-04-05T15:27:01.758Z,6.25
2023-04-05T15:29:30.006Z,6.30
2023-04-05T15:31:58.489Z,6.25
2023-04-05T15:34:26.713Z,6.72
2023-04-05T15:36:55.048Z,6.50
2023-04-05T15:39:24.858Z,6.35
2023-04-05T15:41:52.937Z,6.25
2023-04-05T15:44:21.208Z,6.55
2023-04-05T15:46:49.145Z,6.82
2023-04-05T15:49:17.710Z,6.75
2023-04-05T15:51:47.911Z,6.60
2023-04-05T15:54:18.936Z,9.32
2023-04-05T15:56:50.858Z,7.00
2023-04-05T15:59:18.722Z,6.60
2023-04-05T16:01:47.182Z,5.72
2023-04-05T16:04:18.285Z,6.93
2023-04-05T16:06:46.266Z,7.03
2023-04-05T16:09:15.984Z,6.18
2023-04-05T16:11:45.602Z,7.03
2023-04-05T16:14:18.218Z,6.88
2023-04-05T16:16:53.769Z,6.30
2023-04-05T16:19:23.532Z,6.82
2023-04-05T16:21:52.933Z,6.63
2023-04-05T16:24:21.242Z,6.60
2023-04-05T16:26:49.287Z,7.18
2023-04-05T16:29:18.754Z,6.93
2023-04-05T16:31:47.525Z,7.50
2023-04-05T16:34:16.299Z,6.82
2023-04-05T16:36:44.341Z,6.95
2023-04-05T16:39:12.388Z,7.20
2023-04-05T16:41:40.330Z,7.10
2023-04-05T16:44:08.314Z,7.25
2023-04-05T16:49:05.715Z,7.55
2023-04-05T16:51:35.171Z,6.47
2023-04-05T16:54:03.823Z,6.95
2023-04-05T16:56:31.583Z,6.25
2023-04-05T16:58:59.467Z,6.80
2023-04-05T17:01:28.475Z,6.63
2023-04-05T17:04:00.073Z,7.57
2023-04-05T17:06:29.033Z,7.15
2023-04-05T17:08:56.720Z,7.32
2023-04-05T17:11:24.921Z,6.63
2023-04-05T17:13:53.043Z,7.45
2023-04-05T17:16:21.890Z,7.07
2023-04-05T17:18:49.949Z,6.72
2023-04-05T17:21:19.540Z,6.95
2023-04-05T17:23:55.092Z,6.57
2023-04-05T17:26:26.712Z,6.40
2023-04-05T17:28:54.636Z,6.68
2023-04-05T17:31:22.576Z,7.13
2023-04-05T17:33:50.665Z,6.43
2023-04-05T17:36:19.846Z,6.68
2023-04-05T17:38:47.586Z,6.45
2023-04-05T17:41:15.500Z,6.72
2023-04-05T17:43:43.359Z,6.75
2023-04-05T17:46:13.930Z,6.93
2023-04-05T17:48:41.937Z,6.93
2023-04-05T17:51:22.518Z,6.97
2023-04-05T17:54:12.652Z,6.55
2023-04-05T17:56:41.019Z,6.47
2023-04-05T17:59:09.562Z,6.40
2023-04-05T18:01:38.068Z,7.18
2023-04-05T18:04:06.639Z,5.90
2023-04-05T18:06:35.279Z,7.05
2023-04-05T18:09:05.075Z,7.90
2023-04-05T18:11:33.061Z,6.97
2023-04-05T18:14:01.130Z,7.88
2023-04-05T18:16:29.384Z,7.50
2023-04-05T18:18:57.505Z,8.73
2023-04-05T18:21:25.915Z,8.05
2023-04-05T18:23:54.266Z,7.32
2023-04-05T18:26:23.507Z,7.50
2023-04-05T18:28:57.824Z,7.65
2023-04-05T18:31:25.796Z,6.65
2023-04-05T18:33:53.874Z,7.85
2023-04-05T18:36:23.949Z,7.13
2023-04-05T18:38:54.640Z,6.55
2023-04-05T18:41:24.015Z,7.03
2023-04-05T18:43:54.152Z,7.32
2023-04-05T18:46:23.674Z,6.80
2023-04-05T18:48:54.802Z,7.50
2023-04-05T18:51:23.462Z,7.30
2023-04-05T18:53:51.743Z,6.40
2023-04-05T18:56:20.155Z,7.82
2023-04-05T18:58:50.475Z,8.30
2023-04-05T19:01:20.047Z,7.38
2023-04-05T19:03:48.893Z,8.52
2023-04-05T19:06:18.298Z,8.27
2023-04-05T19:08:48.084Z,8.25
2023-04-05T19:11:18.488Z,8.88
2023-04-05T19:13:46.612Z,9.90
2023-04-05T19:16:17.716Z,10.65
2023-04-05T19:18:45.772Z,10.77
2023-04-05T19:21:13.876Z,11.07
2023-04-05T19:23:42.091Z,9.48
2023-04-05T19:26:10.193Z,9.05
2023-04-05T19:28:38.051Z,9.23
2023-04-05T19:31:06.616Z,8.02
2023-04-05T19:33:35.749Z,8.43
2023-04-05T19:36:03.566Z,9.00
2023-04-05T19:38:31.660Z,9.00
2023-04-05T19:40:59.977Z,8.82
2023-04-05T19:43:31.619Z,9.05
2023-04-05T19:46:01.456Z,8.18
2023-04-05T19:48:39.062Z,9.07
2023-04-05T19:51:07.900Z,8.80
2023-04-05T19:53:43.890Z,9.18
2023-04-05T19:56:14.295Z,9.13
2023-04-05T19:58:42.782Z,9.05
2023-04-05T20:01:10.655Z,11.32
2023-04-05T20:03:41.346Z,12.70
2023-04-05T20:06:10.773Z,13.30
2023-04-05T20:08:40.452Z,13.73
2023-04-05T20:11:11.732Z,13.82
2023-04-05T20:13:44.297Z,13.73
2023-04-05T20:16:13.914Z,13.07
2023-04-05T20:18:45.675Z,14.23
2023-04-05T20:21:14.241Z,15.02
2023-04-05T20:23:42.725Z,14.48
2023-04-05T20:26:13.634Z,14.02
2023-04-05T20:28:43.093Z,14.05
2023-04-05T20:31:12.033Z,14.45
2023-04-05T20:33:49.560Z,13.52
2023-04-05T20:36:19.500Z,14.15
2023-04-05T20:38:48.426Z,13.20
2023-04-05T20:41:19.081Z,13.38
2023-04-05T20:43:47.912Z,12.98
2023-04-05T20:46:17.219Z,12.15
2023-04-05T20:48:45.518Z,11.55
2023-04-05T20:51:16.380Z,11.60
2023-04-05T20:53:44.367Z,12.02
2023-04-05T20:56:12.923Z,12.45
2023-04-05T20:58:41.517Z,11.45
2023-04-05T21:01:10.352Z,11.05
2023-04-05T21:03:39.430Z,11.15
2023-04-05T21:06:08.447Z,10.60
2023-04-05T21:08:38.553Z,9.98
2023-04-05T21:11:07.270Z,10.23
2023-04-05T21:13:35.802Z,10.00
2023-04-05T21:16:03.751Z,9.00
2023-04-05T21:18:31.846Z,9.73
2023-04-05T21:21:00.525Z,10.23
2023-04-05T21:23:29.311Z,9.52
2023-04-05T21:25:59.175Z,9.82
2023-04-05T21:28:27.410Z,9.32
2023-04-05T21:30:55.308Z,10.27
2023-04-05T21:33:23.179Z,10.35
2023-04-05T21:35:51.383Z,10.38
2023-04-05T21:38:19.510Z,10.55
2023-04-05T21:40:50.044Z,9.75
2023-04-05T21:43:19.459Z,10.10
2023-04-05T21:45:47.357Z,10.48
2023-04-05T21:48:15.403Z,10.85
2023-04-05T21:50:43.198Z,10.50
2023-04-05T21:53:11.276Z,10.48
2023-04-05T21:55:39.167Z,10.57
2023-04-05T21:58:07.087Z,11.23
2023-04-05T22:00:36.851Z,12.07
2023-04-05T22:03:05.602Z,11.93
2023-04-05T22:05:38.433Z,12.68
2023-04-05T22:08:07.951Z,12.60
2023-04-05T22:10:37.068Z,12.23
2023-04-05T22:13:07.506Z,11.25
2023-04-05T22:15:36.923Z,11.52
2023-04-05T22:18:05.635Z,11.70
2023-04-05T22:20:33.877Z,11.40
2023-04-05T22:23:01.794Z,10.50
2023-04-05T22:25:29.661Z,10.70
2023-04-05T22:28:00.205Z,10.70
2023-04-05T22:30:37.218Z,11.30
2023-04-05T22:33:13.713Z,10.70
2023-04-05T22:35:42.020Z,10.07
2023-04-05T22:38:10.128Z,10.43
2023-04-05T22:40:38.054Z,9.55
2023-04-05T22:43:06.571Z,9.85
2023-04-05T22:45:34.497Z,10.43
2023-04-05T22:48:02.459Z,9.68
2023-04-05T22:50:31.868Z,9.95
2023-04-05T22:52:59.832Z,10.43
2023-04-05T22:55:27.905Z,9.95
2023-04-05T22:57:56.040Z,11.25
2023-04-05T23:00:24.056Z,11.93
2023-04-05T23:02:52.185Z,10.93
2023-04-05T23:05:19.977Z,9.38
2023-04-05T23:07:49.650Z,10.73
2023-04-05T23:10:17.688Z,9.40
2023-04-05T23:12:46.008Z,9.80
2023-04-05T23:15:14.544Z,9.70
2023-04-05T23:17:42.667Z,9.48
2023-04-05T23:20:11.439Z,9.35
2023-04-05T23:22:39.355Z,9.98
2023-04-05T23:25:10.067Z,9.27
2023-04-05T23:27:38.064Z,8.80
2023-04-05T23:30:07.373Z,8.98
2023-04-05T23:32:35.333Z,9.32
2023-04-05T23:35:03.309Z,9.43
2023-04-05T23:37:31.826Z,8.73
2023-04-05T23:39:59.699Z,9.05
2023-04-05T23:42:28.935Z,9.98
2023-04-05T23:44:56.916Z,8.70
2023-04-05T23:47:24.945Z,9.13
2023-04-05T23:49:52.827Z,8.07
2023-04-05T23:52:20.754Z,7.93
2023-04-05T23:54:48.682Z,8.45
2023-04-05T23:57:16.455Z,7.97
2023-04-05T23:59:45.684Z,7.75
